MiSS Claire — WDD2762 — position and weather

sailwx.info

Track history (hours):
 
Tides and Currents Weather Stations Pressure Air Temp Water Temp Dewpoint Dewpoint Depression Visibility Wind Speed Wind Dir Waves Ship Positions

MiSS Claire

Owner: Captain Elliott's Party Boats, Inc., Freeport, TX. More information available from US FCC via Universal Licensing System and Coast Guard Vessel Documentation Center.

Last reported at 2017-Oct-08 15:34 UTC. Time now 2017-Oct-20 01:32 UTC.
Position N 29°49' W 092°04'.
Warning: this ship's position is 11 days out of date.

Length 52 m; draft 3.5 m.

Type: Passenger vessel. MMSI: 367119570.

Date/timePositionNaut miles runAvg speedWind from/ knotsBaromVisibWave heightAir tempDewpointWater temp
2017-Oct-08 15:34N 29°49' W 092°04'1 8.9
2017-Oct-08 15:30N 29°48' W 092°04'4 7.7
2017-Oct-08 15:00N 29°47' W 092°09'2 4.6
2017-Oct-08 14:30N 29°47' W 092°11'0 0.0
2017-Oct-08 14:00N 29°47' W 092°11'0 0.0
2017-Oct-08 13:30N 29°47' W 092°11'0 0.0
2017-Oct-08 13:00N 29°47' W 092°11'0 0.0
2017-Oct-08 12:30N 29°47' W 092°11'0 0.0
2017-Oct-08 12:00N 29°47' W 092°11'0 0.0
2017-Oct-08 11:30N 29°47' W 092°11'0 0.0
2017-Oct-08 11:00N 29°47' W 092°11'0 0.0
2017-Oct-08 10:30N 29°47' W 092°11'0 0.0
2017-Oct-08 10:00N 29°47' W 092°11'0 0.0
2017-Oct-08 09:30N 29°47' W 092°11'0 0.0
2017-Oct-08 09:00N 29°47' W 092°11'0 0.0
2017-Oct-08 08:30N 29°47' W 092°11'0 0.0
2017-Oct-08 08:00N 29°47' W 092°11'0 0.0
2017-Oct-08 07:30N 29°47' W 092°11'0 0.0
2017-Oct-08 07:00N 29°47' W 092°11'0 0.0
2017-Oct-08 06:30N 29°47' W 092°11'0 0.0
2017-Oct-08 06:00N 29°47' W 092°11'0 0.0
2017-Oct-08 05:30N 29°47' W 092°11'0 0.0
2017-Oct-08 05:00N 29°47' W 092°11'0 0.0
2017-Oct-08 04:30N 29°47' W 092°11'0 0.0
2017-Oct-08 04:00N 29°47' W 092°11'0 0.0
2017-Oct-08 03:30N 29°47' W 092°11'0 0.0
2017-Oct-08 03:00N 29°47' W 092°11'0 0.0
2017-Oct-08 02:30N 29°47' W 092°11'0 0.0
2017-Oct-08 02:00N 29°47' W 092°11'0 0.0
2017-Oct-08 01:30N 29°47' W 092°11'0 0.0
2017-Oct-08 01:00N 29°47' W 092°11'0 0.0
2017-Oct-08 00:30N 29°47' W 092°11'0 0.0
2017-Oct-08 00:00N 29°47' W 092°11'0 0.0
2017-Oct-07 23:30N 29°47' W 092°11'0 0.0
2017-Oct-07 23:00N 29°47' W 092°11'0 0.0
2017-Oct-07 22:30N 29°47' W 092°11'0 0.0
2017-Oct-07 22:00N 29°47' W 092°11'0 0.0
2017-Oct-07 21:30N 29°47' W 092°11'2 4.6
2017-Oct-07 21:00N 29°48' W 092°08'1 1.4
2017-Oct-07 20:30N 29°47' W 092°09'1 1.2
2017-Oct-07 20:00N 29°48' W 092°09'0 0.0
2017-Oct-07 19:30N 29°48' W 092°09'0 0.0
2017-Oct-07 19:00N 29°48' W 092°09'1 2.6
2017-Oct-07 18:30N 29°47' W 092°10'7 1.0
2017-Oct-07 11:33N 29°42' W 092°15'115.3
2017-Oct-07 11:30N 29°42' W 092°15'713.6
2017-Oct-07 11:00N 29°47' W 092°09'1 1.2
2017-Oct-07 10:30N 29°48' W 092°09'4 8.6
2017-Oct-07 10:01N 29°45' W 092°13'5 0.3
2017-Oct-06 15:42N 29°41' W 092°15'2 8.2
2017-Oct-06 15:30N 29°43' W 092°15'612.4
2017-Oct-06 15:00N 29°47' W 092°10'1 2.2
2017-Oct-06 14:30N 29°48' W 092°09'0 0.0
2017-Oct-06 14:00N 29°48' W 092°09'0 0.0
2017-Oct-06 13:30N 29°48' W 092°09'1 1.5
2017-Oct-06 13:00N 29°47' W 092°09'510.4
2017-Oct-06 12:30N 29°44' W 092°14'2 0.2
2017-Oct-05 22:20N 29°42' W 092°15'617.4
2017-Oct-05 22:00N 29°46' W 092°10'2 4.0
2017-Oct-05 21:30N 29°48' W 092°09'0 0.0
2017-Oct-05 21:00N 29°48' W 092°09'0 0.0
2017-Oct-05 20:30N 29°48' W 092°09'0 0.1
2017-Oct-05 20:00N 29°48' W 092°09'0 0.0
2017-Oct-05 19:30N 29°48' W 092°09'0 0.0
2017-Oct-05 19:00N 29°48' W 092°09'0 0.0
2017-Oct-05 18:30N 29°48' W 092°09'0 0.3
2017-Oct-05 18:00N 29°47' W 092°09'0 0.2
2017-Oct-05 17:30N 29°48' W 092°09'0 0.0
2017-Oct-05 17:00N 29°48' W 092°09'0 0.0
2017-Oct-05 15:30N 29°47' W 092°09'2 4.0
2017-Oct-05 15:00N 29°46' W 092°10'7 1.2
2017-Oct-05 08:48N 29°41' W 092°15'516.5
2017-Oct-05 08:30N 29°45' W 092°13'5 1.4
2017-Oct-05 05:16N 29°48' W 092°09'0 0.0
2017-Oct-05 05:00N 29°48' W 092°09'0 0.0
2017-Oct-05 04:30N 29°48' W 092°09'0 0.0
2017-Oct-05 04:00N 29°48' W 092°09'0 0.0
2017-Oct-05 03:30N 29°48' W 092°09'0 0.0
2017-Oct-05 03:00N 29°48' W 092°09'0 0.0
2017-Oct-05 02:30N 29°48' W 092°09'0 0.0
2017-Oct-05 02:00N 29°48' W 092°09'0 0.0
2017-Oct-05 01:30N 29°48' W 092°09'0 0.0
2017-Oct-05 01:00N 29°48' W 092°09'0 0.0
2017-Oct-05 00:30N 29°48' W 092°09'0 0.0
2017-Oct-05 00:00N 29°48' W 092°09'0 0.0
2017-Oct-04 23:30N 29°48' W 092°09'0 0.0
2017-Oct-04 23:00N 29°48' W 092°09'0 0.0
2017-Oct-04 22:30N 29°48' W 092°09'0 0.0
2017-Oct-04 22:00N 29°48' W 092°09'0 0.0
2017-Oct-04 21:30N 29°48' W 092°09'0 0.0
2017-Oct-04 21:00N 29°48' W 092°09'0 0.0
2017-Oct-04 20:30N 29°48' W 092°09'0 0.0
2017-Oct-04 20:00N 29°48' W 092°09'0 0.3
2017-Oct-04 19:30N 29°47' W 092°09'0 0.2
2017-Oct-04 19:00N 29°48' W 092°09'0 0.0
2017-Oct-04 18:30N 29°48' W 092°09'0 0.0
2017-Oct-04 18:00N 29°48' W 092°09'0 0.0
2017-Oct-04 17:30N 29°48' W 092°09'0 0.0
2017-Oct-04 17:00N 29°48' W 092°09'0 0.0
2017-Oct-04 16:30N 29°48' W 092°09'0 0.0
2017-Oct-04 16:00N 29°48' W 092°09'0 0.0
2017-Oct-04 15:30N 29°48' W 092°09'0 0.0
2017-Oct-04 15:00N 29°48' W 092°09'0 0.0
2017-Oct-04 14:30N 29°48' W 092°09'0 0.2
2017-Oct-04 14:00N 29°48' W 092°09'2 4.6
2017-Oct-04 13:30N 29°46' W 092°11'7 0.4
2017-Oct-03 20:30N 29°41' W 092°15'714.5
2017-Oct-03 20:00N 29°47' W 092°10'2 3.3
2017-Oct-03 19:30N 29°48' W 092°09'0 0.0
2017-Oct-03 19:00N 29°48' W 092°09'0 0.0
2017-Oct-03 18:30N 29°48' W 092°09'1 2.4
2017-Oct-03 18:00N 29°47' W 092°10'510.4
2017-Oct-03 17:30N 29°44' W 092°15'3 0.4
2017-Oct-03 10:36N 29°41' W 092°15'113.2
2017-Oct-03 10:30N 29°42' W 092°15'510.2
2017-Oct-03 10:00N 29°46' W 092°11'3 5.1
2017-Oct-03 09:30N 29°48' W 092°09'0 0.2
2017-Oct-03 09:00N 29°47' W 092°09'0 0.0
2017-Oct-03 08:30N 29°47' W 092°09'0 0.0
2017-Oct-03 08:00N 29°47' W 092°09'0 0.0
2017-Oct-03 07:30N 29°47' W 092°09'0 0.0
2017-Oct-03 07:00N 29°47' W 092°09'0 0.0
2017-Oct-03 06:30N 29°47' W 092°09'1 1.6
2017-Oct-03 06:00N 29°47' W 092°09'8 0.8
2017-Oct-02 19:58N 29°41' W 092°15'816.6
2017-Oct-02 19:30N 29°47' W 092°10'2 3.3
2017-Oct-02 19:00N 29°48' W 092°09'0 0.0
2017-Oct-02 18:30N 29°48' W 092°09'0 0.1
2017-Oct-02 18:00N 29°48' W 092°09'0 0.0
2017-Oct-02 17:30N 29°48' W 092°09'0 0.0
2017-Oct-02 17:00N 29°48' W 092°09'0 0.0
2017-Oct-02 16:30N 29°48' W 092°09'0 0.0
2017-Oct-02 16:00N 29°48' W 092°09'0 0.0
2017-Oct-02 15:30N 29°48' W 092°09'0 0.0
2017-Oct-02 15:00N 29°48' W 092°09'0 0.0
2017-Oct-02 14:30N 29°48' W 092°09'0 0.0
2017-Oct-02 14:00N 29°48' W 092°09'0 0.0
2017-Oct-02 13:30N 29°48' W 092°09'0 0.1
2017-Oct-02 13:00N 29°48' W 092°09'0 0.0
2017-Oct-02 12:30N 29°48' W 092°09'0 0.0
2017-Oct-02 12:00N 29°48' W 092°09'0 0.0
2017-Oct-02 11:30N 29°48' W 092°09'0 0.0
2017-Oct-02 11:00N 29°48' W 092°09'0 0.0
2017-Oct-02 10:30N 29°48' W 092°09'0 0.0
2017-Oct-02 10:00N 29°48' W 092°09'2 3.1
2017-Oct-02 09:30N 29°47' W 092°10'11 1.2
2017-Oct-02 00:07N 29°37' W 092°17'418.1
2017-Oct-01 23:55N 29°41' W 092°15'513.1
2017-Oct-01 23:31N 29°45' W 092°12'4 8.1
2017-Oct-01 23:00N 29°48' W 092°09'0 0.0
2017-Oct-01 22:30N 29°48' W 092°09'0 0.1
2017-Oct-01 22:00N 29°48' W 092°09'0 0.0
2017-Oct-01 21:30N 29°48' W 092°09'0 0.0
2017-Oct-01 21:00N 29°48' W 092°09'0 0.0
2017-Oct-01 20:30N 29°48' W 092°09'0 0.0
2017-Oct-01 20:00N 29°48' W 092°09'0 0.0
2017-Oct-01 19:30N 29°48' W 092°09'0 0.0
2017-Oct-01 19:00N 29°48' W 092°09'0 0.0
2017-Oct-01 18:30N 29°48' W 092°09'0 0.0
2017-Oct-01 18:00N 29°48' W 092°09'0 0.0
2017-Oct-01 17:31N 29°48' W 092°09'0 0.0
2017-Oct-01 17:01N 29°48' W 092°09'0 0.0
2017-Oct-01 16:31N 29°48' W 092°09'0 0.0
2017-Oct-01 16:01N 29°48' W 092°09'0 0.0
2017-Oct-01 15:31N 29°48' W 092°09'0 0.0
2017-Oct-01 15:00N 29°48' W 092°09'0 0.0
2017-Oct-01 14:31N 29°48' W 092°09'0 0.0
2017-Oct-01 14:01N 29°48' W 092°09'0 0.0
2017-Oct-01 13:30N 29°48' W 092°09'0 0.1
2017-Oct-01 13:00N 29°48' W 092°09'0 0.0
2017-Oct-01 12:30N 29°48' W 092°09'0 0.0
2017-Oct-01 12:01N 29°48' W 092°09'0 0.3
2017-Oct-01 11:31N 29°47' W 092°09'0 0.2
2017-Oct-01 11:00N 29°48' W 092°09'0 0.0
2017-Oct-01 10:31N 29°48' W 092°09'0 0.0
2017-Oct-01 10:01N 29°48' W 092°09'0 0.0
2017-Oct-01 09:31N 29°48' W 092°09'0 0.0
2017-Oct-01 09:01N 29°48' W 092°09'0 0.0
2017-Oct-01 08:30N 29°48' W 092°09'0 0.0
2017-Oct-01 08:01N 29°48' W 092°09'0 0.0
2017-Oct-01 07:31N 29°48' W 092°09'0 0.0
2017-Oct-01 07:01N 29°48' W 092°09'0 0.0
2017-Oct-01 06:31N 29°48' W 092°09'2 4.4
2017-Oct-01 06:00N 29°46' W 092°11'2 0.1
2017-Sep-30 02:00N 29°48' W 092°09'0 0.0
2017-Sep-30 01:30N 29°48' W 092°09'0 0.0
2017-Sep-30 01:00N 29°48' W 092°09'0 0.0
2017-Sep-30 00:30N 29°48' W 092°09'0 0.0
2017-Sep-30 00:00N 29°48' W 092°09'0 0.0
2017-Sep-29 23:30N 29°48' W 092°09'0 0.0
2017-Sep-29 23:00N 29°48' W 092°09'0 0.0
2017-Sep-29 22:30N 29°48' W 092°09'0 0.0
2017-Sep-29 22:00N 29°48' W 092°09'0 0.0
2017-Sep-29 21:30N 29°48' W 092°09'0 0.0
2017-Sep-29 21:00N 29°48' W 092°09'0 0.0
2017-Sep-29 20:30N 29°48' W 092°09'0 0.0
2017-Sep-29 20:00N 29°48' W 092°09'0 0.0
2017-Sep-29 19:30N 29°48' W 092°09'0 0.0
2017-Sep-29 19:00N 29°48' W 092°09'0 0.0
2017-Sep-29 18:30N 29°48' W 092°09'0 0.0
2017-Sep-29 18:00N 29°48' W 092°09'0 0.0
2017-Sep-29 17:30N 29°48' W 092°09'0 0.0
2017-Sep-29 17:00N 29°48' W 092°09'0 0.0
2017-Sep-29 16:30N 29°48' W 092°09'0 0.0
2017-Sep-29 16:00N 29°48' W 092°09'0 0.0
2017-Sep-29 15:30N 29°48' W 092°09'0 0.0
2017-Sep-29 15:00N 29°48' W 092°09'0 0.0
2017-Sep-29 14:30N 29°48' W 092°09'0 0.0
2017-Sep-29 14:00N 29°48' W 092°09'0 0.0
2017-Sep-29 13:30N 29°48' W 092°09'0 0.0
2017-Sep-29 13:00N 29°48' W 092°09'0 0.0
2017-Sep-29 12:30N 29°48' W 092°09'0 0.0
2017-Sep-29 12:00N 29°48' W 092°09'1 1.7
2017-Sep-29 11:30N 29°47' W 092°09'12 1.6
2017-Sep-29 04:13N 29°37' W 092°17'311.8
2017-Sep-29 03:57N 29°40' W 092°15'613.3
2017-Sep-29 03:31N 29°45' W 092°12'4 7.7
2017-Sep-29 03:01N 29°47' W 092°09'0 0.2
2017-Sep-29 02:31N 29°48' W 092°09'0 0.0
2017-Sep-29 02:00N 29°48' W 092°09'0 0.0
2017-Sep-29 01:31N 29°48' W 092°09'0 0.0
2017-Sep-29 01:00N 29°48' W 092°09'0 0.0
2017-Sep-29 00:30N 29°48' W 092°09'0 0.0
2017-Sep-29 00:00N 29°48' W 092°09'0 0.0
2017-Sep-28 23:30N 29°48' W 092°09'0 0.0
2017-Sep-28 23:00N 29°48' W 092°09'0 0.0
2017-Sep-28 22:30N 29°48' W 092°09'0 0.0
2017-Sep-28 22:01N 29°48' W 092°09'0 0.0
2017-Sep-28 21:30N 29°48' W 092°09'0 0.0
2017-Sep-28 21:01N 29°48' W 092°09'0 0.0
2017-Sep-28 20:30N 29°48' W 092°09'0 0.0
2017-Sep-28 20:00N 29°48' W 092°09'0 0.0
2017-Sep-28 19:30N 29°48' W 092°09'0 0.0
2017-Sep-28 19:00N 29°48' W 092°09'0 0.0
2017-Sep-28 18:30N 29°48' W 092°09'0 0.0
2017-Sep-28 18:00N 29°48' W 092°09'0 0.0
2017-Sep-28 17:30N 29°48' W 092°09'0 0.0
2017-Sep-28 17:00N 29°48' W 092°09'0 0.0
2017-Sep-28 16:31N 29°48' W 092°09'0 0.0
2017-Sep-28 16:00N 29°48' W 092°09'  
Track history (hours):
 
Tides and Currents Weather Stations Pressure Air Temp Water Temp Dewpoint Dewpoint Depression Visibility Wind Speed Wind Dir Waves Ship Positions

MiSS Claire

Owner: Captain Elliott's Party Boats, Inc., Freeport, TX. More information available from US FCC via Universal Licensing System and Coast Guard Vessel Documentation Center.

Last reported at 2017-Oct-08 15:34 UTC. Time now 2017-Oct-20 01:32 UTC.
Position N 29°49' W 092°04'.
Warning: this ship's position is 11 days out of date.

Length 52 m; draft 3.5 m.

Type: Passenger vessel. MMSI: 367119570.

Date/timePositionNaut miles runAvg speedWind from/ knotsBaromVisibWave heightAir tempDewpointWater temp
2017-Oct-08 15:34N 29°49' W 092°04'1 8.9
2017-Oct-08 15:30N 29°48' W 092°04'4 7.7
2017-Oct-08 15:00N 29°47' W 092°09'2 4.6
2017-Oct-08 14:30N 29°47' W 092°11'0 0.0
2017-Oct-08 14:00N 29°47' W 092°11'0 0.0
2017-Oct-08 13:30N 29°47' W 092°11'0 0.0
2017-Oct-08 13:00N 29°47' W 092°11'0 0.0
2017-Oct-08 12:30N 29°47' W 092°11'0 0.0
2017-Oct-08 12:00N 29°47' W 092°11'0 0.0
2017-Oct-08 11:30N 29°47' W 092°11'0 0.0
2017-Oct-08 11:00N 29°47' W 092°11'0 0.0
2017-Oct-08 10:30N 29°47' W 092°11'0 0.0
2017-Oct-08 10:00N 29°47' W 092°11'0 0.0
2017-Oct-08 09:30N 29°47' W 092°11'0 0.0
2017-Oct-08 09:00N 29°47' W 092°11'0 0.0
2017-Oct-08 08:30N 29°47' W 092°11'0 0.0
2017-Oct-08 08:00N 29°47' W 092°11'0 0.0
2017-Oct-08 07:30N 29°47' W 092°11'0 0.0
2017-Oct-08 07:00N 29°47' W 092°11'0 0.0
2017-Oct-08 06:30N 29°47' W 092°11'0 0.0
2017-Oct-08 06:00N 29°47' W 092°11'0 0.0
2017-Oct-08 05:30N 29°47' W 092°11'0 0.0
2017-Oct-08 05:00N 29°47' W 092°11'0 0.0
2017-Oct-08 04:30N 29°47' W 092°11'0 0.0
2017-Oct-08 04:00N 29°47' W 092°11'0 0.0
2017-Oct-08 03:30N 29°47' W 092°11'0 0.0
2017-Oct-08 03:00N 29°47' W 092°11'0 0.0
2017-Oct-08 02:30N 29°47' W 092°11'0 0.0
2017-Oct-08 02:00N 29°47' W 092°11'0 0.0
2017-Oct-08 01:30N 29°47' W 092°11'0 0.0
2017-Oct-08 01:00N 29°47' W 092°11'0 0.0
2017-Oct-08 00:30N 29°47' W 092°11'0 0.0
2017-Oct-08 00:00N 29°47' W 092°11'0 0.0
2017-Oct-07 23:30N 29°47' W 092°11'0 0.0
2017-Oct-07 23:00N 29°47' W 092°11'0 0.0
2017-Oct-07 22:30N 29°47' W 092°11'0 0.0
2017-Oct-07 22:00N 29°47' W 092°11'0 0.0
2017-Oct-07 21:30N 29°47' W 092°11'2 4.6
2017-Oct-07 21:00N 29°48' W 092°08'1 1.4
2017-Oct-07 20:30N 29°47' W 092°09'1 1.2
2017-Oct-07 20:00N 29°48' W 092°09'0 0.0
2017-Oct-07 19:30N 29°48' W 092°09'0 0.0
2017-Oct-07 19:00N 29°48' W 092°09'1 2.6
2017-Oct-07 18:30N 29°47' W 092°10'7 1.0
2017-Oct-07 11:33N 29°42' W 092°15'115.3
2017-Oct-07 11:30N 29°42' W 092°15'713.6
2017-Oct-07 11:00N 29°47' W 092°09'1 1.2
2017-Oct-07 10:30N 29°48' W 092°09'4 8.6
2017-Oct-07 10:01N 29°45' W 092°13'5 0.3
2017-Oct-06 15:42N 29°41' W 092°15'2 8.2
2017-Oct-06 15:30N 29°43' W 092°15'612.4
2017-Oct-06 15:00N 29°47' W 092°10'1 2.2
2017-Oct-06 14:30N 29°48' W 092°09'0 0.0
2017-Oct-06 14:00N 29°48' W 092°09'0 0.0
2017-Oct-06 13:30N 29°48' W 092°09'1 1.5
2017-Oct-06 13:00N 29°47' W 092°09'510.4
2017-Oct-06 12:30N 29°44' W 092°14'2 0.2
2017-Oct-05 22:20N 29°42' W 092°15'617.4
2017-Oct-05 22:00N 29°46' W 092°10'2 4.0
2017-Oct-05 21:30N 29°48' W 092°09'0 0.0
2017-Oct-05 21:00N 29°48' W 092°09'0 0.0
2017-Oct-05 20:30N 29°48' W 092°09'0 0.1
2017-Oct-05 20:00N 29°48' W 092°09'0 0.0
2017-Oct-05 19:30N 29°48' W 092°09'0 0.0
2017-Oct-05 19:00N 29°48' W 092°09'0 0.0
2017-Oct-05 18:30N 29°48' W 092°09'0 0.3
2017-Oct-05 18:00N 29°47' W 092°09'0 0.2
2017-Oct-05 17:30N 29°48' W 092°09'0 0.0
2017-Oct-05 17:00N 29°48' W 092°09'0 0.0
2017-Oct-05 15:30N 29°47' W 092°09'2 4.0
2017-Oct-05 15:00N 29°46' W 092°10'7 1.2
2017-Oct-05 08:48N 29°41' W 092°15'516.5
2017-Oct-05 08:30N 29°45' W 092°13'5 1.4
2017-Oct-05 05:16N 29°48' W 092°09'0 0.0
2017-Oct-05 05:00N 29°48' W 092°09'0 0.0
2017-Oct-05 04:30N 29°48' W 092°09'0 0.0
2017-Oct-05 04:00N 29°48' W 092°09'0 0.0
2017-Oct-05 03:30N 29°48' W 092°09'0 0.0
2017-Oct-05 03:00N 29°48' W 092°09'0 0.0
2017-Oct-05 02:30N 29°48' W 092°09'0 0.0
2017-Oct-05 02:00N 29°48' W 092°09'0 0.0
2017-Oct-05 01:30N 29°48' W 092°09'0 0.0
2017-Oct-05 01:00N 29°48' W 092°09'0 0.0
2017-Oct-05 00:30N 29°48' W 092°09'0 0.0
2017-Oct-05 00:00N 29°48' W 092°09'0 0.0
2017-Oct-04 23:30N 29°48' W 092°09'0 0.0
2017-Oct-04 23:00N 29°48' W 092°09'0 0.0
2017-Oct-04 22:30N 29°48' W 092°09'0 0.0
2017-Oct-04 22:00N 29°48' W 092°09'0 0.0
2017-Oct-04 21:30N 29°48' W 092°09'0 0.0
2017-Oct-04 21:00N 29°48' W 092°09'0 0.0
2017-Oct-04 20:30N 29°48' W 092°09'0 0.0
2017-Oct-04 20:00N 29°48' W 092°09'0 0.3
2017-Oct-04 19:30N 29°47' W 092°09'0 0.2
2017-Oct-04 19:00N 29°48' W 092°09'0 0.0
2017-Oct-04 18:30N 29°48' W 092°09'0 0.0
2017-Oct-04 18:00N 29°48' W 092°09'0 0.0
2017-Oct-04 17:30N 29°48' W 092°09'0 0.0
2017-Oct-04 17:00N 29°48' W 092°09'0 0.0
2017-Oct-04 16:30N 29°48' W 092°09'0 0.0
2017-Oct-04 16:00N 29°48' W 092°09'0 0.0
2017-Oct-04 15:30N 29°48' W 092°09'0 0.0
2017-Oct-04 15:00N 29°48' W 092°09'0 0.0
2017-Oct-04 14:30N 29°48' W 092°09'0 0.2
2017-Oct-04 14:00N 29°48' W 092°09'2 4.6
2017-Oct-04 13:30N 29°46' W 092°11'7 0.4
2017-Oct-03 20:30N 29°41' W 092°15'714.5
2017-Oct-03 20:00N 29°47' W 092°10'2 3.3
2017-Oct-03 19:30N 29°48' W 092°09'0 0.0
2017-Oct-03 19:00N 29°48' W 092°09'0 0.0
2017-Oct-03 18:30N 29°48' W 092°09'1 2.4
2017-Oct-03 18:00N 29°47' W 092°10'510.4
2017-Oct-03 17:30N 29°44' W 092°15'3 0.4
2017-Oct-03 10:36N 29°41' W 092°15'113.2
2017-Oct-03 10:30N 29°42' W 092°15'510.2
2017-Oct-03 10:00N 29°46' W 092°11'3 5.1
2017-Oct-03 09:30N 29°48' W 092°09'0 0.2
2017-Oct-03 09:00N 29°47' W 092°09'0 0.0
2017-Oct-03 08:30N 29°47' W 092°09'0 0.0
2017-Oct-03 08:00N 29°47' W 092°09'0 0.0
2017-Oct-03 07:30N 29°47' W 092°09'0 0.0
2017-Oct-03 07:00N 29°47' W 092°09'0 0.0
2017-Oct-03 06:30N 29°47' W 092°09'1 1.6
2017-Oct-03 06:00N 29°47' W 092°09'8 0.8
2017-Oct-02 19:58N 29°41' W 092°15'816.6
2017-Oct-02 19:30N 29°47' W 092°10'2 3.3
2017-Oct-02 19:00N 29°48' W 092°09'0 0.0
2017-Oct-02 18:30N 29°48' W 092°09'0 0.1
2017-Oct-02 18:00N 29°48' W 092°09'0 0.0
2017-Oct-02 17:30N 29°48' W 092°09'0 0.0
2017-Oct-02 17:00N 29°48' W 092°09'0 0.0
2017-Oct-02 16:30N 29°48' W 092°09'0 0.0
2017-Oct-02 16:00N 29°48' W 092°09'0 0.0
2017-Oct-02 15:30N 29°48' W 092°09'0 0.0
2017-Oct-02 15:00N 29°48' W 092°09'0 0.0
2017-Oct-02 14:30N 29°48' W 092°09'0 0.0
2017-Oct-02 14:00N 29°48' W 092°09'0 0.0
2017-Oct-02 13:30N 29°48' W 092°09'0 0.1
2017-Oct-02 13:00N 29°48' W 092°09'0 0.0
2017-Oct-02 12:30N 29°48' W 092°09'0 0.0
2017-Oct-02 12:00N 29°48' W 092°09'0 0.0
2017-Oct-02 11:30N 29°48' W 092°09'0 0.0
2017-Oct-02 11:00N 29°48' W 092°09'0 0.0
2017-Oct-02 10:30N 29°48' W 092°09'0 0.0
2017-Oct-02 10:00N 29°48' W 092°09'2 3.1
2017-Oct-02 09:30N 29°47' W 092°10'11 1.2
2017-Oct-02 00:07N 29°37' W 092°17'418.1
2017-Oct-01 23:55N 29°41' W 092°15'513.1
2017-Oct-01 23:31N 29°45' W 092°12'4 8.1
2017-Oct-01 23:00N 29°48' W 092°09'0 0.0
2017-Oct-01 22:30N 29°48' W 092°09'0 0.1
2017-Oct-01 22:00N 29°48' W 092°09'0 0.0
2017-Oct-01 21:30N 29°48' W 092°09'0 0.0
2017-Oct-01 21:00N 29°48' W 092°09'0 0.0
2017-Oct-01 20:30N 29°48' W 092°09'0 0.0
2017-Oct-01 20:00N 29°48' W 092°09'0 0.0
2017-Oct-01 19:30N 29°48' W 092°09'0 0.0
2017-Oct-01 19:00N 29°48' W 092°09'0 0.0
2017-Oct-01 18:30N 29°48' W 092°09'0 0.0
2017-Oct-01 18:00N 29°48' W 092°09'0 0.0
2017-Oct-01 17:31N 29°48' W 092°09'0 0.0
2017-Oct-01 17:01N 29°48' W 092°09'0 0.0
2017-Oct-01 16:31N 29°48' W 092°09'0 0.0
2017-Oct-01 16:01N 29°48' W 092°09'0 0.0
2017-Oct-01 15:31N 29°48' W 092°09'0 0.0
2017-Oct-01 15:00N 29°48' W 092°09'0 0.0
2017-Oct-01 14:31N 29°48' W 092°09'0 0.0
2017-Oct-01 14:01N 29°48' W 092°09'0 0.0
2017-Oct-01 13:30N 29°48' W 092°09'0 0.1
2017-Oct-01 13:00N 29°48' W 092°09'0 0.0
2017-Oct-01 12:30N 29°48' W 092°09'0 0.0
2017-Oct-01 12:01N 29°48' W 092°09'0 0.3
2017-Oct-01 11:31N 29°47' W 092°09'0 0.2
2017-Oct-01 11:00N 29°48' W 092°09'0 0.0
2017-Oct-01 10:31N 29°48' W 092°09'0 0.0
2017-Oct-01 10:01N 29°48' W 092°09'0 0.0
2017-Oct-01 09:31N 29°48' W 092°09'0 0.0
2017-Oct-01 09:01N 29°48' W 092°09'0 0.0
2017-Oct-01 08:30N 29°48' W 092°09'0 0.0
2017-Oct-01 08:01N 29°48' W 092°09'0 0.0
2017-Oct-01 07:31N 29°48' W 092°09'0 0.0
2017-Oct-01 07:01N 29°48' W 092°09'0 0.0
2017-Oct-01 06:31N 29°48' W 092°09'2 4.4
2017-Oct-01 06:00N 29°46' W 092°11'2 0.1
2017-Sep-30 02:00N 29°48' W 092°09'0 0.0
2017-Sep-30 01:30N 29°48' W 092°09'0 0.0
2017-Sep-30 01:00N 29°48' W 092°09'0 0.0
2017-Sep-30 00:30N 29°48' W 092°09'0 0.0
2017-Sep-30 00:00N 29°48' W 092°09'0 0.0
2017-Sep-29 23:30N 29°48' W 092°09'0 0.0
2017-Sep-29 23:00N 29°48' W 092°09'0 0.0
2017-Sep-29 22:30N 29°48' W 092°09'0 0.0
2017-Sep-29 22:00N 29°48' W 092°09'0 0.0
2017-Sep-29 21:30N 29°48' W 092°09'0 0.0
2017-Sep-29 21:00N 29°48' W 092°09'0 0.0
2017-Sep-29 20:30N 29°48' W 092°09'0 0.0
2017-Sep-29 20:00N 29°48' W 092°09'0 0.0
2017-Sep-29 19:30N 29°48' W 092°09'0 0.0
2017-Sep-29 19:00N 29°48' W 092°09'0 0.0
2017-Sep-29 18:30N 29°48' W 092°09'0 0.0
2017-Sep-29 18:00N 29°48' W 092°09'0 0.0
2017-Sep-29 17:30N 29°48' W 092°09'0 0.0
2017-Sep-29 17:00N 29°48' W 092°09'0 0.0
2017-Sep-29 16:30N 29°48' W 092°09'0 0.0
2017-Sep-29 16:00N 29°48' W 092°09'0 0.0
2017-Sep-29 15:30N 29°48' W 092°09'0 0.0
2017-Sep-29 15:00N 29°48' W 092°09'0 0.0
2017-Sep-29 14:30N 29°48' W 092°09'0 0.0
2017-Sep-29 14:00N 29°48' W 092°09'0 0.0
2017-Sep-29 13:30N 29°48' W 092°09'0 0.0
2017-Sep-29 13:00N 29°48' W 092°09'0 0.0
2017-Sep-29 12:30N 29°48' W 092°09'0 0.0
2017-Sep-29 12:00N 29°48' W 092°09'1 1.7
2017-Sep-29 11:30N 29°47' W 092°09'12 1.6
2017-Sep-29 04:13N 29°37' W 092°17'311.8
2017-Sep-29 03:57N 29°40' W 092°15'613.3
2017-Sep-29 03:31N 29°45' W 092°12'4 7.7
2017-Sep-29 03:01N 29°47' W 092°09'0 0.2
2017-Sep-29 02:31N 29°48' W 092°09'0 0.0
2017-Sep-29 02:00N 29°48' W 092°09'0 0.0
2017-Sep-29 01:31N 29°48' W 092°09'0 0.0
2017-Sep-29 01:00N 29°48' W 092°09'0 0.0
2017-Sep-29 00:30N 29°48' W 092°09'0 0.0
2017-Sep-29 00:00N 29°48' W 092°09'0 0.0
2017-Sep-28 23:30N 29°48' W 092°09'0 0.0
2017-Sep-28 23:00N 29°48' W 092°09'0 0.0
2017-Sep-28 22:30N 29°48' W 092°09'0 0.0
2017-Sep-28 22:01N 29°48' W 092°09'0 0.0
2017-Sep-28 21:30N 29°48' W 092°09'0 0.0
2017-Sep-28 21:01N 29°48' W 092°09'0 0.0
2017-Sep-28 20:30N 29°48' W 092°09'0 0.0
2017-Sep-28 20:00N 29°48' W 092°09'0 0.0
2017-Sep-28 19:30N 29°48' W 092°09'0 0.0
2017-Sep-28 19:00N 29°48' W 092°09'0 0.0
2017-Sep-28 18:30N 29°48' W 092°09'0 0.0
2017-Sep-28 18:00N 29°48' W 092°09'0 0.0
2017-Sep-28 17:30N 29°48' W 092°09'0 0.0
2017-Sep-28 17:00N 29°48' W 092°09'0 0.0
2017-Sep-28 16:31N 29°48' W 092°09'0 0.0
2017-Sep-28 16:00N 29°48' W 092°09'  

Dump ship's entire track history